sensor_id;sensor_type;location;lat;lon;timestamp;pressure;altitude;pressure_sealevel;temperature;humidity
37142;BME280;23041;49.816;20.092;2022-12-07T00:01:03;97174.92;;;2.36;74.94
37142;BME280;23041;49.816;20.092;2022-12-07T00:03:25;97171.23;;;2.34;74.94
37142;BME280;23041;49.816;20.092;2022-12-07T00:05:51;97166.78;;;2.29;74.91
37142;BME280;23041;49.816;20.092;2022-12-07T00:08:17;97164.45;;;2.27;74.89
37142;BME280;23041;49.816;20.092;2022-12-07T00:10:43;97158.26;;;2.09;74.85
37142;BME280;23041;49.816;20.092;2022-12-07T00:13:09;97170.45;;;2.16;74.84
37142;BME280;23041;49.816;20.092;2022-12-07T00:15:34;97169.86;;;2.10;74.82
37142;BME280;23041;49.816;20.092;2022-12-07T00:18:01;97161.15;;;1.89;74.79
37142;BME280;23041;49.816;20.092;2022-12-07T00:20:26;97157.45;;;1.80;74.77
37142;BME280;23041;49.816;20.092;2022-12-07T00:22:52;97166.15;;;1.76;74.77
37142;BME280;23041;49.816;20.092;2022-12-07T00:25:18;97160.52;;;1.68;74.76
37142;BME280;23041;49.816;20.092;2022-12-07T00:27:44;97164.57;;;1.68;74.76
37142;BME280;23041;49.816;20.092;2022-12-07T00:30:10;97164.98;;;1.67;74.75
37142;BME280;23041;49.816;20.092;2022-12-07T00:32:36;97169.98;;;1.68;74.75
37142;BME280;23041;49.816;20.092;2022-12-07T00:35:02;97168.66;;;1.72;74.76
37142;BME280;23041;49.816;20.092;2022-12-07T00:37:29;97165.00;;;1.77;74.78
37142;BME280;23041;49.816;20.092;2022-12-07T00:39:55;97173.70;;;1.91;74.82
37142;BME280;23041;49.816;20.092;2022-12-07T00:42:21;97168.52;;;2.02;74.83
37142;BME280;23041;49.816;20.092;2022-12-07T00:44:47;97178.19;;;2.11;74.82
37142;BME280;23041;49.816;20.092;2022-12-07T00:47:12;97174.52;;;2.13;74.83
37142;BME280;23041;49.816;20.092;2022-12-07T00:49:38;97169.67;;;2.16;74.83
37142;BME280;23041;49.816;20.092;2022-12-07T00:52:04;97168.72;;;2.18;74.84
37142;BME280;23041;49.816;20.092;2022-12-07T00:54:30;97165.05;;;2.20;74.83
37142;BME280;23041;49.816;20.092;2022-12-07T00:56:56;97169.30;;;2.24;74.84
37142;BME280;23041;49.816;20.092;2022-12-07T00:59:22;97173.94;;;2.27;74.85
37142;BME280;23041;49.816;20.092;2022-12-07T01:01:48;97166.78;;;2.29;74.85
37142;BME280;23041;49.816;20.092;2022-12-07T01:04:14;97165.03;;;2.27;74.85
37142;BME280;23041;49.816;20.092;2022-12-07T01:06:40;97167.16;;;2.27;74.84
37142;BME280;23041;49.816;20.092;2022-12-07T01:09:05;97160.39;;;2.10;74.83
37142;BME280;23041;49.816;20.092;2022-12-07T01:11:31;97164.09;;;2.25;74.82
37142;BME280;23041;49.816;20.092;2022-12-07T01:13:58;97162.52;;;2.21;74.83
37142;BME280;23041;49.816;20.092;2022-12-07T01:16:25;97159.82;;;2.17;74.81
37142;BME280;23041;49.816;20.092;2022-12-07T01:18:52;97155.00;;;2.20;74.82
37142;BME280;23041;49.816;20.092;2022-12-07T01:21:21;97143.18;;;2.04;74.81
37142;BME280;23041;49.816;20.092;2022-12-07T01:23:49;97155.17;;;2.21;74.83
37142;BME280;23041;49.816;20.092;2022-12-07T01:26:17;97146.67;;;2.23;74.83
37142;BME280;23041;49.816;20.092;2022-12-07T01:28:45;97149.00;;;2.24;74.83
37142;BME280;23041;49.816;20.092;2022-12-07T01:31:12;97145.52;;;2.24;74.82
37142;BME280;23041;49.816;20.092;2022-12-07T01:33:47;97130.82;;;2.07;74.81
37142;BME280;23041;49.816;20.092;2022-12-07T01:36:16;97142.61;;;2.23;74.83
37142;BME280;23041;49.816;20.092;2022-12-07T01:38:46;97146.47;;;2.22;74.83
37142;BME280;23041;49.816;20.092;2022-12-07T01:41:14;97142.03;;;2.23;74.83
37142;BME280;23041;49.816;20.092;2022-12-07T01:44:07;97143.78;;;2.25;74.83
37142;BME280;23041;49.816;20.092;2022-12-07T01:46:27;97133.91;;;2.13;74.82
37142;BME280;23041;49.816;20.092;2022-12-07T01:48:53;97145.14;;;2.25;74.84
37142;BME280;23041;49.816;20.092;2022-12-07T01:51:19;97144.15;;;2.27;74.86
37142;BME280;23041;49.816;20.092;2022-12-07T01:53:46;97137.00;;;2.11;74.87
37142;BME280;23041;49.816;20.092;2022-12-07T01:56:13;97136.98;;;2.15;74.87
37142;BME280;23041;49.816;20.092;2022-12-07T01:58:41;97140.69;;;2.20;74.90
37142;BME280;23041;49.816;20.092;2022-12-07T02:01:07;97130.63;;;2.24;74.92
37142;BME280;23041;49.816;20.092;2022-12-07T02:03:38;97135.84;;;2.30;74.95
37142;BME280;23041;49.816;20.092;2022-12-07T02:06:05;97133.70;;;2.40;74.97
37142;BME280;23041;49.816;20.092;2022-12-07T02:08:32;97131.58;;;2.50;74.98
37142;BME280;23041;49.816;20.092;2022-12-07T02:10:59;97132.72;;;2.53;75.01
37142;BME280;23041;49.816;20.092;2022-12-07T02:13:28;97125.55;;;2.58;75.02
37142;BME280;23041;49.816;20.092;2022-12-07T02:21:41;97130.92;;;2.82;75.00
37142;BME280;23041;49.816;20.092;2022-12-07T02:29:57;97129.38;;;2.85;74.93
37142;BME280;23041;49.816;20.092;2022-12-07T02:32:24;97126.08;;;2.82;74.91
37142;BME280;23041;49.816;20.092;2022-12-07T02:34:50;97130.34;;;2.83;74.89
37142;BME280;23041;49.816;20.092;2022-12-07T02:37:25;97125.31;;;2.81;74.85
37142;BME280;23041;49.816;20.092;2022-12-07T02:42:55;97122.03;;;2.75;74.81
37142;BME280;23041;49.816;20.092;2022-12-07T02:45:22;97125.73;;;2.73;74.78
37142;BME280;23041;49.816;20.092;2022-12-07T02:47:51;97133.66;;;2.68;74.78
37142;BME280;23041;49.816;20.092;2022-12-07T02:50:19;97128.84;;;2.68;74.77
37142;BME280;23041;49.816;20.092;2022-12-07T02:52:46;97127.48;;;2.64;74.75
37142;BME280;23041;49.816;20.092;2022-12-07T02:55:12;97125.96;;;2.56;74.75
37142;BME280;23041;49.816;20.092;2022-12-07T03:00:35;97121.70;;;2.55;74.71
37142;BME280;23041;49.816;20.092;2022-12-07T03:03:04;97124.61;;;2.56;74.73
37142;BME280;23041;49.816;20.092;2022-12-07T03:08:30;97120.16;;;2.54;74.71
37142;BME280;23041;49.816;20.092;2022-12-07T03:10:56;97114.72;;;2.51;74.72
37142;BME280;23041;49.816;20.092;2022-12-07T03:16:27;97114.16;;;2.48;74.71
37142;BME280;23041;49.816;20.092;2022-12-07T03:19:17;97104.11;;;2.34;74.73
37142;BME280;23041;49.816;20.092;2022-12-07T03:21:40;97103.91;;;2.33;74.74
37142;BME280;23041;49.816;20.092;2022-12-07T03:24:09;97104.48;;;2.39;74.77
37142;BME280;23041;49.816;20.092;2022-12-07T03:26:41;97097.73;;;2.43;74.80
37142;BME280;23041;49.816;20.092;2022-12-07T03:29:17;97102.36;;;2.50;74.85
37142;BME280;23041;49.816;20.092;2022-12-07T03:31:52;97097.70;;;2.61;74.86
37142;BME280;23041;49.816;20.092;2022-12-07T03:37:06;97096.86;;;2.74;74.87
37142;BME280;23041;49.816;20.092;2022-12-07T03:39:50;97100.93;;;2.74;74.87
37142;BME280;23041;49.816;20.092;2022-12-07T03:42:16;97098.61;;;2.76;74.88
37142;BME280;23041;49.816;20.092;2022-12-07T03:44:42;97097.07;;;2.79;74.85
37142;BME280;23041;49.816;20.092;2022-12-07T03:47:12;97093.78;;;2.79;74.89
37142;BME280;23041;49.816;20.092;2022-12-07T03:49:46;97093.97;;;2.77;74.89
37142;BME280;23041;49.816;20.092;2022-12-07T03:57:38;97076.81;;;2.54;74.87
37142;BME280;23041;49.816;20.092;2022-12-07T04:00:06;97078.37;;;2.48;74.86
37142;BME280;23041;49.816;20.092;2022-12-07T04:02:33;97079.91;;;2.45;74.87
37142;BME280;23041;49.816;20.092;2022-12-07T04:04:59;97080.11;;;2.50;74.88
37142;BME280;23041;49.816;20.092;2022-12-07T04:07:25;97080.08;;;2.57;74.88
37142;BME280;23041;49.816;20.092;2022-12-07T04:09:51;97084.52;;;2.63;74.90
37142;BME280;23041;49.816;20.092;2022-12-07T04:12:19;97085.09;;;2.62;74.90
37142;BME280;23041;49.816;20.092;2022-12-07T04:14:46;97080.08;;;2.68;74.92
37142;BME280;23041;49.816;20.092;2022-12-07T04:17:12;97081.80;;;2.73;74.93
37142;BME280;23041;49.816;20.092;2022-12-07T04:19:38;97080.38;;;2.91;74.95
37142;BME280;23041;49.816;20.092;2022-12-07T04:22:04;97082.46;;;2.99;74.95
37142;BME280;23041;49.816;20.092;2022-12-07T04:24:30;97082.83;;;3.08;74.96
37142;BME280;23041;49.816;20.092;2022-12-07T04:26:56;97080.12;;;3.08;74.96
37142;BME280;23041;49.816;20.092;2022-12-07T04:29:23;97085.73;;;3.05;74.93
37142;BME280;23041;49.816;20.092;2022-12-07T04:31:49;97079.73;;;3.06;74.92
37142;BME280;23041;49.816;20.092;2022-12-07T04:34:16;97082.08;;;3.04;74.91
37142;BME280;23041;49.816;20.092;2022-12-07T04:36:42;97082.85;;;3.01;74.89
37142;BME280;23041;49.816;20.092;2022-12-07T04:39:13;97078.39;;;2.99;74.89
37142;BME280;23041;49.816;20.092;2022-12-07T04:41:41;97076.68;;;2.97;74.86
37142;BME280;23041;49.816;20.092;2022-12-07T04:44:07;97078.45;;;2.92;74.84
37142;BME280;23041;49.816;20.092;2022-12-07T04:46:33;97077.48;;;2.90;74.83
37142;BME280;23041;49.816;20.092;2022-12-07T04:48:59;97077.25;;;2.93;74.81
37142;BME280;23041;49.816;20.092;2022-12-07T04:51:26;97082.90;;;2.90;74.80
37142;BME280;23041;49.816;20.092;2022-12-07T04:53:53;97073.82;;;2.85;74.79
37142;BME280;23041;49.816;20.092;2022-12-07T04:56:20;97068.44;;;2.71;74.75
37142;BME280;23041;49.816;20.092;2022-12-07T04:58:46;97077.69;;;2.84;74.75
37142;BME280;23041;49.816;20.092;2022-12-07T05:01:14;97073.43;;;2.83;74.74
37142;BME280;23041;49.816;20.092;2022-12-07T05:03:40;97067.47;;;2.69;74.71
37142;BME280;23041;49.816;20.092;2022-12-07T05:06:06;97070.14;;;2.83;74.71
37142;BME280;23041;49.816;20.092;2022-12-07T05:08:33;97072.27;;;2.84;74.71
37142;BME280;23041;49.816;20.092;2022-12-07T05:11:00;97070.53;;;2.82;74.70
37142;BME280;23041;49.816;20.092;2022-12-07T05:13:26;97072.47;;;2.85;74.70
37142;BME280;23041;49.816;20.092;2022-12-07T05:15:52;97074.20;;;2.83;74.70
37142;BME280;23041;49.816;20.092;2022-12-07T05:18:18;97068.39;;;2.81;74.70
37142;BME280;23041;49.816;20.092;2022-12-07T05:20:44;97064.00;;;2.65;74.69
37142;BME280;23041;49.816;20.092;2022-12-07T05:23:11;97068.63;;;2.68;74.71
37142;BME280;23041;49.816;20.092;2022-12-07T05:25:37;97064.95;;;2.70;74.73
37142;BME280;23041;49.816;20.092;2022-12-07T05:28:04;97069.38;;;2.76;74.73
37142;BME280;23041;49.816;20.092;2022-12-07T05:30:31;97067.84;;;2.78;74.76
37142;BME280;23041;49.816;20.092;2022-12-07T05:32:57;97073.03;;;2.92;74.77
37142;BME280;23041;49.816;20.092;2022-12-07T05:35:23;97077.26;;;2.96;74.78
37142;BME280;23041;49.816;20.092;2022-12-07T05:37:49;97079.36;;;3.00;74.74
37142;BME280;23041;49.816;20.092;2022-12-07T05:40:15;97082.85;;;3.01;74.73
37142;BME280;23041;49.816;20.092;2022-12-07T05:42:42;97085.15;;;3.06;74.73
37142;BME280;23041;49.816;20.092;2022-12-07T05:45:09;97089.02;;;3.08;74.71
37142;BME280;23041;49.816;20.092;2022-12-07T05:47:35;97086.70;;;3.07;74.72
37142;BME280;23041;49.816;20.092;2022-12-07T05:50:01;97097.73;;;3.04;74.71
37142;BME280;23041;49.816;20.092;2022-12-07T05:52:28;97100.66;;;2.98;74.67
37142;BME280;23041;49.816;20.092;2022-12-07T05:54:53;97092.37;;;2.97;74.68
37142;BME280;23041;49.816;20.092;2022-12-07T05:57:19;97096.23;;;2.96;74.68
37142;BME280;23041;49.816;20.092;2022-12-07T05:59:45;97095.45;;;2.92;74.66
37142;BME280;23041;49.816;20.092;2022-12-07T06:02:13;97082.94;;;2.79;74.65
37142;BME280;23041;49.816;20.092;2022-12-07T06:04:41;97096.25;;;2.89;74.67
37142;BME280;23041;49.816;20.092;2022-12-07T06:07:09;97092.39;;;2.90;74.68
37142;BME280;23041;49.816;20.092;2022-12-07T06:09:37;97085.28;;;2.74;74.66
37142;BME280;23041;49.816;20.092;2022-12-07T06:12:04;97093.56;;;2.85;74.68
37142;BME280;23041;49.816;20.092;2022-12-07T06:14:49;97099.36;;;2.80;74.69
37142;BME280;23041;49.816;20.092;2022-12-07T06:17:15;97088.98;;;2.61;74.66
37142;BME280;23041;49.816;20.092;2022-12-07T06:19:41;97088.41;;;2.62;74.69
37142;BME280;23041;49.816;20.092;2022-12-07T06:22:07;97098.45;;;2.65;74.74
37142;BME280;23041;49.816;20.092;2022-12-07T06:24:34;97095.72;;;2.68;74.76
37142;BME280;23041;49.816;20.092;2022-12-07T06:27:00;97097.66;;;2.71;74.80
37142;BME280;23041;49.816;20.092;2022-12-07T06:29:26;97099.58;;;2.78;74.80
37142;BME280;23041;49.816;20.092;2022-12-07T06:31:52;97093.95;;;2.80;74.83
37142;BME280;23041;49.816;20.092;2022-12-07T06:34:19;97098.98;;;2.85;74.84
37142;BME280;23041;49.816;20.092;2022-12-07T06:36:48;97094.90;;;2.89;74.87
37142;BME280;23041;49.816;20.092;2022-12-07T06:39:17;97106.06;;;3.05;74.91
37142;BME280;23041;49.816;20.092;2022-12-07T06:41:43;97103.72;;;3.11;74.90
37142;BME280;23041;49.816;20.092;2022-12-07T06:44:10;97103.30;;;3.16;74.90
37142;BME280;23041;49.816;20.092;2022-12-07T06:46:36;97110.66;;;3.19;74.89
37142;BME280;23041;49.816;20.092;2022-12-07T06:49:02;97108.37;;;3.14;74.89
37142;BME280;23041;49.816;20.092;2022-12-07T06:51:29;97109.16;;;3.07;74.88
37142;BME280;23041;49.816;20.092;2022-12-07T06:53:56;97107.64;;;3.03;74.85
37142;BME280;23041;49.816;20.092;2022-12-07T06:56:22;97109.94;;;3.04;74.84
37142;BME280;23041;49.816;20.092;2022-12-07T06:58:48;97108.00;;;3.05;74.82
37142;BME280;23041;49.816;20.092;2022-12-07T07:01:16;97110.92;;;2.99;74.84
37142;BME280;23041;49.816;20.092;2022-12-07T07:03:43;97108.22;;;2.99;74.81
37142;BME280;23041;49.816;20.092;2022-12-07T07:06:12;97115.59;;;2.95;74.82
37142;BME280;23041;49.816;20.092;2022-12-07T07:08:38;97117.12;;;2.99;74.83
37142;BME280;23041;49.816;20.092;2022-12-07T07:13:35;97117.12;;;2.99;74.84
37142;BME280;23041;49.816;20.092;2022-12-07T07:16:01;97118.48;;;2.99;74.86
37142;BME280;23041;49.816;20.092;2022-12-07T07:18:27;97112.92;;;2.84;74.84
37142;BME280;23041;49.816;20.092;2022-12-07T07:20:53;97125.47;;;2.93;74.86
37142;BME280;23041;49.816;20.092;2022-12-07T07:23:19;97121.41;;;2.97;74.85
37142;BME280;23041;49.816;20.092;2022-12-07T07:25:46;97128.59;;;2.92;74.85
37142;BME280;23041;49.816;20.092;2022-12-07T07:28:12;97124.53;;;2.92;74.85
37142;BME280;23041;49.816;20.092;2022-12-07T07:30:38;97122.56;;;2.92;74.87
37142;BME280;23041;49.816;20.092;2022-12-07T07:33:05;97114.11;;;2.79;74.89
37142;BME280;23041;49.816;20.092;2022-12-07T07:35:31;97112.36;;;2.77;74.91
37142;BME280;23041;49.816;20.092;2022-12-07T07:37:59;97120.30;;;2.76;74.92
37142;BME280;23041;49.816;20.092;2022-12-07T07:40:25;97118.55;;;2.78;74.94
37142;BME280;23041;49.816;20.092;2022-12-07T07:42:52;97121.83;;;2.84;74.98
37142;BME280;23041;49.816;20.092;2022-12-07T07:45:20;97114.84;;;2.91;75.00
37142;BME280;23041;49.816;20.092;2022-12-07T07:47:47;97116.17;;;2.94;75.05
37142;BME280;23041;49.816;20.092;2022-12-07T07:50:13;97122.73;;;3.00;75.05
37142;BME280;23041;49.816;20.092;2022-12-07T07:52:40;97121.19;;;2.99;75.04
37142;BME280;23041;49.816;20.092;2022-12-07T07:55:06;97128.75;;;3.03;75.04
37142;BME280;23041;49.816;20.092;2022-12-07T07:57:36;97120.98;;;3.09;75.02
37142;BME280;23041;49.816;20.092;2022-12-07T08:00:07;97132.94;;;3.18;75.04
37142;BME280;23041;49.816;20.092;2022-12-07T08:02:31;97133.89;;;3.23;75.06
37142;BME280;23041;49.816;20.092;2022-12-07T08:04:57;97134.68;;;3.17;75.06
37142;BME280;23041;49.816;20.092;2022-12-07T08:07:23;97137.59;;;3.18;75.06
37142;BME280;23041;49.816;20.092;2022-12-07T08:09:49;97137.59;;;3.21;75.04
37142;BME280;23041;49.816;20.092;2022-12-07T08:12:15;97133.39;;;3.03;75.03
37142;BME280;23041;49.816;20.092;2022-12-07T08:14:41;97137.63;;;3.07;75.07
37142;BME280;23041;49.816;20.092;2022-12-07T08:17:10;97136.10;;;2.99;75.08
37142;BME280;23041;49.816;20.092;2022-12-07T08:19:37;97143.47;;;3.02;75.08
37142;BME280;23041;49.816;20.092;2022-12-07T08:22:04;97141.88;;;3.12;75.09
37142;BME280;23041;49.816;20.092;2022-12-07T08:24:32;97143.02;;;3.21;75.12
37142;BME280;23041;49.816;20.092;2022-12-07T08:27:01;97145.31;;;3.26;75.15
37142;BME280;23041;49.816;20.092;2022-12-07T08:29:27;97150.89;;;3.38;75.16
37142;BME280;23041;49.816;20.092;2022-12-07T08:31:53;97153.38;;;3.41;75.15
37142;BME280;23041;49.816;20.092;2022-12-07T08:34:20;97156.89;;;3.38;75.13
37142;BME280;23041;49.816;20.092;2022-12-07T08:36:46;97152.66;;;3.33;75.11
37142;BME280;23041;49.816;20.092;2022-12-07T08:39:12;97152.80;;;3.45;75.10
37142;BME280;23041;49.816;20.092;2022-12-07T08:41:38;97146.95;;;3.50;75.08
37142;BME280;23041;49.816;20.092;2022-12-07T08:44:04;97159.88;;;3.61;75.09
37142;BME280;23041;49.816;20.092;2022-12-07T08:46:31;97162.15;;;3.69;75.10
37142;BME280;23041;49.816;20.092;2022-12-07T08:49:03;97161.17;;;3.75;75.10
37142;BME280;23041;49.816;20.092;2022-12-07T08:51:43;97163.66;;;3.78;75.10
37142;BME280;23041;49.816;20.092;2022-12-07T08:54:10;97166.37;;;3.78;75.07
37142;BME280;23041;49.816;20.092;2022-12-07T08:56:38;97164.63;;;3.79;75.05
37142;BME280;23041;49.816;20.092;2022-12-07T08:59:04;97168.48;;;3.82;75.02
37142;BME280;23041;49.816;20.092;2022-12-07T09:01:31;97174.75;;;3.75;74.98
37142;BME280;23041;49.816;20.092;2022-12-07T09:03:58;97163.43;;;3.51;74.96
37142;BME280;23041;49.816;20.092;2022-12-07T09:06:24;97171.18;;;3.49;74.93
37142;BME280;23041;49.816;20.092;2022-12-07T09:08:51;97165.22;;;3.35;74.91
37142;BME280;23041;49.816;20.092;2022-12-07T09:11:19;97170.88;;;3.33;74.86
37142;BME280;23041;49.816;20.092;2022-12-07T09:13:45;97166.97;;;3.37;74.86
37142;BME280;23041;49.816;20.092;2022-12-07T09:16:11;97171.02;;;3.41;74.85
37142;BME280;23041;49.816;20.092;2022-12-07T09:18:37;97174.70;;;3.42;74.83
37142;BME280;23041;49.816;20.092;2022-12-07T09:21:04;97174.11;;;3.43;74.78
37142;BME280;23041;49.816;20.092;2022-12-07T09:23:31;97174.72;;;3.35;74.73
37142;BME280;23041;49.816;20.092;2022-12-07T09:26:00;97175.13;;;3.30;74.69
37142;BME280;23041;49.816;20.092;2022-12-07T09:28:27;97170.50;;;3.27;74.65
37142;BME280;23041;49.816;20.092;2022-12-07T09:30:53;97158.56;;;3.00;74.62
37142;BME280;23041;49.816;20.092;2022-12-07T09:33:19;97161.49;;;2.97;74.62
37142;BME280;23041;49.816;20.092;2022-12-07T09:35:46;97165.91;;;3.06;74.61
37142;BME280;23041;49.816;20.092;2022-12-07T09:38:12;97161.84;;;3.10;74.62
37142;BME280;23041;49.816;20.092;2022-12-07T09:40:39;97163.55;;;3.19;74.61
37142;BME280;23041;49.816;20.092;2022-12-07T09:43:11;97155.00;;;3.24;74.61
37142;BME280;23041;49.816;20.092;2022-12-07T09:45:35;97159.41;;;3.37;74.62
37142;BME280;23041;49.816;20.092;2022-12-07T09:48:02;97153.16;;;3.47;74.65
37142;BME280;23041;49.816;20.092;2022-12-07T09:50:29;97156.23;;;3.56;74.66
37142;BME280;23041;49.816;20.092;2022-12-07T09:53:02;97150.61;;;3.55;74.64
37142;BME280;23041;49.816;20.092;2022-12-07T09:55:31;97154.88;;;3.56;74.65
37142;BME280;23041;49.816;20.092;2022-12-07T09:57:59;97149.50;;;3.42;74.62
37142;BME280;23041;49.816;20.092;2022-12-07T10:00:25;97152.61;;;3.44;74.63
37142;BME280;23041;49.816;20.092;2022-12-07T10:02:55;97149.50;;;3.45;74.65
37142;BME280;23041;49.816;20.092;2022-12-07T10:05:24;97155.29;;;3.47;74.64
37142;BME280;23041;49.816;20.092;2022-12-07T10:07:51;97152.77;;;3.48;74.62
37142;BME280;23041;49.816;20.092;2022-12-07T10:10:19;97162.21;;;3.62;74.62
37142;BME280;23041;49.816;20.092;2022-12-07T10:13:00;97158.27;;;3.70;74.62
37142;BME280;23041;49.816;20.092;2022-12-07T10:18:35;97150.06;;;3.85;74.58
37142;BME280;23041;49.816;20.092;2022-12-07T10:23:42;97138.62;;;3.82;74.49
37142;BME280;23041;49.816;20.092;2022-12-07T10:28:59;97134.39;;;3.81;74.39
37142;BME280;23041;49.816;20.092;2022-12-07T10:31:27;97124.38;;;3.63;74.37
37142;BME280;23041;49.816;20.092;2022-12-07T10:36:32;97131.67;;;3.77;74.36
37142;BME280;23041;49.816;20.092;2022-12-07T10:39:14;97129.85;;;3.89;74.39
37142;BME280;23041;49.816;20.092;2022-12-07T10:41:24;97125.58;;;3.92;74.40
37142;BME280;23041;49.816;20.092;2022-12-07T10:43:52;97126.70;;;3.98;74.36
37142;BME280;23041;49.816;20.092;2022-12-07T10:49:18;97134.19;;;4.09;74.34
37142;BME280;23041;49.816;20.092;2022-12-07T10:54:48;97121.67;;;4.22;74.16
37142;BME280;23041;49.816;20.092;2022-12-07T10:57:29;97112.17;;;4.19;74.05
37142;BME280;23041;49.816;20.092;2022-12-07T11:05:18;97105.58;;;4.64;73.86
37142;BME280;23041;49.816;20.092;2022-12-07T11:18:47;97096.63;;;4.45;73.33
37142;BME280;23041;49.816;20.092;2022-12-07T11:26:27;97086.80;;;4.36;72.77
37142;BME280;23041;49.816;20.092;2022-12-07T11:31:58;97076.90;;;4.37;72.47
37142;BME280;23041;49.816;20.092;2022-12-07T11:37:06;97092.50;;;4.52;72.28
37142;BME280;23041;49.816;20.092;2022-12-07T11:39:35;97094.75;;;4.38;72.14
37142;BME280;23041;49.816;20.092;2022-12-07T11:42:12;97092.72;;;4.27;72.02
37142;BME280;23041;49.816;20.092;2022-12-07T11:44:45;97090.09;;;4.17;71.88
37142;BME280;23041;49.816;20.092;2022-12-07T11:50:17;97086.89;;;3.77;71.65
37142;BME280;23041;49.816;20.092;2022-12-07T11:52:49;97090.19;;;3.77;71.60
37142;BME280;23041;49.816;20.092;2022-12-07T11:55:43;97089.48;;;3.69;71.53
37142;BME280;23041;49.816;20.092;2022-12-07T12:06:42;97081.54;;;3.66;71.46
37142;BME280;23041;49.816;20.092;2022-12-07T12:20:35;97081.22;;;3.87;71.17
37142;BME280;23041;49.816;20.092;2022-12-07T12:23:06;97085.05;;;3.93;71.07
37142;BME280;23041;49.816;20.092;2022-12-07T12:25:50;97074.94;;;3.93;70.95
37142;BME280;23041;49.816;20.092;2022-12-07T12:28:27;97073.22;;;3.91;70.83
37142;BME280;23041;49.816;20.092;2022-12-07T12:31:16;97074.25;;;3.82;70.71
37142;BME280;23041;49.816;20.092;2022-12-07T12:33:35;97057.16;;;3.59;70.57
37142;BME280;23041;49.816;20.092;2022-12-07T12:47:04;97065.80;;;3.73;70.09
37142;BME280;23041;49.816;20.092;2022-12-07T12:55:20;97062.03;;;3.82;69.87
37142;BME280;23041;49.816;20.092;2022-12-07T12:58:21;97059.89;;;3.85;69.79
37142;BME280;23041;49.816;20.092;2022-12-07T13:00:35;97060.44;;;3.88;69.72
37142;BME280;23041;49.816;20.092;2022-12-07T13:03:01;97058.73;;;3.86;69.63
37142;BME280;23041;49.816;20.092;2022-12-07T13:05:28;97048.00;;;3.68;69.56
37142;BME280;23041;49.816;20.092;2022-12-07T13:07:59;97059.39;;;3.75;69.52
37142;BME280;23041;49.816;20.092;2022-12-07T13:15:44;97066.65;;;3.63;69.33
37142;BME280;23041;49.816;20.092;2022-12-07T13:21:40;97057.46;;;3.43;69.21
37142;BME280;23041;49.816;20.092;2022-12-07T13:29:15;97060.09;;;3.57;68.95
37142;BME280;23041;49.816;20.092;2022-12-07T13:31:49;97061.49;;;3.50;68.82
37142;BME280;23041;49.816;20.092;2022-12-07T13:34:36;97051.75;;;3.26;68.74
37142;BME280;23041;49.816;20.092;2022-12-07T13:39:49;97067.99;;;3.30;68.69
37142;BME280;23041;49.816;20.092;2022-12-07T13:42:22;97080.23;;;3.26;68.69
37142;BME280;23041;49.816;20.092;2022-12-07T13:44:58;97078.09;;;3.26;68.70
37142;BME280;23041;49.816;20.092;2022-12-07T13:47:34;97084.10;;;3.25;68.72
37142;BME280;23041;49.816;20.092;2022-12-07T13:52:55;97078.70;;;3.18;68.76
37142;BME280;23041;49.816;20.092;2022-12-07T13:55:22;97075.80;;;3.21;68.78
37142;BME280;23041;49.816;20.092;2022-12-07T13:57:49;97084.10;;;3.25;68.81
37142;BME280;23041;49.816;20.092;2022-12-07T14:00:21;97085.04;;;3.31;68.84
37142;BME280;23041;49.816;20.092;2022-12-07T14:02:55;97082.69;;;3.36;68.83
37142;BME280;23041;49.816;20.092;2022-12-07T14:05:32;97072.31;;;3.20;68.78
37142;BME280;23041;49.816;20.092;2022-12-07T14:08:00;97085.81;;;3.31;68.75
37142;BME280;23041;49.816;20.092;2022-12-07T14:15:56;97090.00;;;3.10;68.45
37142;BME280;23041;49.816;20.092;2022-12-07T14:18:30;97089.08;;;2.98;68.33
37142;BME280;23041;49.816;20.092;2022-12-07T14:21:21;97080.03;;;2.75;68.22
37142;BME280;23041;49.816;20.092;2022-12-07T14:26:34;97093.23;;;2.66;68.03
37142;BME280;23041;49.816;20.092;2022-12-07T14:31:47;97096.73;;;2.45;67.92
37142;BME280;23041;49.816;20.092;2022-12-07T14:34:13;97090.75;;;2.38;67.85
37142;BME280;23041;49.816;20.092;2022-12-07T14:36:39;97091.94;;;2.30;67.80
37142;BME280;23041;49.816;20.092;2022-12-07T14:39:05;97083.05;;;2.05;67.74
37142;BME280;23041;49.816;20.092;2022-12-07T14:41:31;97096.37;;;2.15;67.71
37142;BME280;23041;49.816;20.092;2022-12-07T14:44:15;97082.48;;;1.95;67.65
37142;BME280;23041;49.816;20.092;2022-12-07T14:46:43;97091.38;;;2.02;67.63
37142;BME280;23041;49.816;20.092;2022-12-07T14:49:10;97091.16;;;1.80;67.60
37142;BME280;23041;49.816;20.092;2022-12-07T14:51:37;97097.73;;;1.86;67.60
37142;BME280;23041;49.816;20.092;2022-12-07T14:54:05;97107.22;;;1.83;67.55
37142;BME280;23041;49.816;20.092;2022-12-07T14:56:32;97108.93;;;1.74;67.57
37142;BME280;23041;49.816;20.092;2022-12-07T14:58:58;97108.16;;;1.74;67.56
37142;BME280;23041;49.816;20.092;2022-12-07T15:01:24;97114.74;;;1.76;67.57
37142;BME280;23041;49.816;20.092;2022-12-07T15:03:50;97113.38;;;1.80;67.55
37142;BME280;23041;49.816;20.092;2022-12-07T15:06:17;97116.28;;;1.81;67.56
37142;BME280;23041;49.816;20.092;2022-12-07T15:08:43;97115.91;;;1.82;67.57
37142;BME280;23041;49.816;20.092;2022-12-07T15:11:13;97111.25;;;1.69;67.53
37142;BME280;23041;49.816;20.092;2022-12-07T15:13:40;97110.29;;;1.85;67.55
37142;BME280;23041;49.816;20.092;2022-12-07T15:16:24;97103.73;;;1.72;67.52
37142;BME280;23041;49.816;20.092;2022-12-07T15:18:50;97115.70;;;1.85;67.51
37142;BME280;23041;49.816;20.092;2022-12-07T15:21:17;97104.50;;;1.76;67.48
37142;BME280;23041;49.816;20.092;2022-12-07T15:23:43;97105.11;;;1.96;67.50
37142;BME280;23041;49.816;20.092;2022-12-07T15:26:14;97091.38;;;2.06;67.50
37142;BME280;23041;49.816;20.092;2022-12-07T15:28:40;97098.52;;;2.12;67.46
37142;BME280;23041;49.816;20.092;2022-12-07T15:31:17;97089.81;;;2.23;67.43
37142;BME280;23041;49.816;20.092;2022-12-07T15:33:42;97077.43;;;2.15;67.33